Time;durP1;ratioP1;P1;durP2;ratioP2;P2;SDS_P1;SDS_P2;PMS_P1;PMS_P2;Temp;Humidity;BMP_temperature;BMP_pressure;BME280_temperature;BME280_humidity;BME280_pressure;Samples;Min_cycle;Max_cycle;Signal;HPM_P1;HPM_P2
2023/01/10 00:03:25;;;;;;;18.53;6.07;;;;;;;4.04;100.00;101068.34;10423065;28;20071;-80
2023/01/10 00:08:25;;;;;;;13.25;4.63;;;;;;;4.00;100.00;101070.59;10432943;28;20124;-81
2023/01/10 00:13:26;;;;;;;26.40;6.07;;;;;;;3.88;100.00;101068.84;10429826;28;20127;-81
2023/01/10 00:18:26;;;;;;;13.38;5.70;;;;;;;3.64;100.00;101080.75;10395236;28;20037;-81
2023/01/10 00:23:27;;;;;;;21.05;5.22;;;;;;;3.45;100.00;101097.41;10411046;28;20090;-81
2023/01/10 00:28:27;;;;;;;16.08;4.05;;;;;;;3.37;100.00;101107.16;10416854;28;20084;-81
2023/01/10 00:33:30;;;;;;;8.90;4.00;;;;;;;3.27;100.00;101107.22;10392221;28;20521;-81
2023/01/10 00:38:32;;;;;;;21.15;6.03;;;;;;;3.06;100.00;101124.44;10420110;28;20036;-81
2023/01/10 00:48:52;;;;;;;13.88;5.03;;;;;;;2.71;100.00;101140.53;10437483;28;20042;-82
2023/01/10 00:53:53;;;;;;;12.05;4.00;;;;;;;2.72;100.00;101151.03;10490789;28;20079;-82
2023/01/10 00:58:53;;;;;;;22.98;6.18;;;;;;;2.64;100.00;101175.31;10469891;28;20056;-82
2023/01/10 01:03:54;;;;;;;11.77;5.35;;;;;;;2.56;100.00;101172.06;10447905;28;20450;-82
2023/01/10 01:08:54;;;;;;;13.35;5.20;;;;;;;2.53;100.00;101182.16;10415979;28;20055;-82
2023/01/10 01:13:55;;;;;;;24.55;6.80;;;;;;;2.43;100.00;101182.13;10448980;28;20405;-82
2023/01/10 01:18:56;;;;;;;18.60;7.22;;;;;;;2.32;100.00;101191.56;10437623;28;20565;-81
2023/01/10 01:23:56;;;;;;;15.63;5.25;;;;;;;2.29;100.00;101196.47;10412255;28;20430;-82
2023/01/10 01:28:57;;;;;;;17.60;6.10;;;;;;;2.24;100.00;101201.22;10405610;28;20551;-81
2023/01/10 01:33:57;;;;;;;15.88;6.15;;;;;;;2.24;100.00;101200.34;10491982;28;20444;-81
2023/01/10 01:38:58;;;;;;;25.48;7.25;;;;;;;2.16;100.00;101213.50;10458284;28;20036;-81
2023/01/10 01:44:06;;;;;;;9.60;5.43;;;;;;;2.15;100.00;101232.34;10467142;28;20071;-82
2023/01/10 01:49:11;;;;;;;15.90;5.40;;;;;;;2.19;100.00;101236.06;10439864;28;20041;-81
2023/01/10 01:54:12;;;;;;;13.32;6.28;;;;;;;2.44;100.00;101257.22;10413820;28;20044;-81
2023/01/10 01:59:50;;;;;;;14.98;5.97;;;;;;;2.46;100.00;101259.91;10447366;28;20025;-81
2023/01/10 02:04:56;;;;;;;12.18;5.78;;;;;;;2.33;100.00;101263.13;10428527;28;20045;-82
2023/01/10 02:10:02;;;;;;;16.52;5.43;;;;;;;2.35;100.00;101267.63;10412635;28;20033;-81
2023/01/10 02:15:02;;;;;;;15.00;6.63;;;;;;;2.24;100.00;101277.81;10432725;28;20041;-82
2023/01/10 02:20:08;;;;;;;12.60;5.57;;;;;;;2.26;100.00;101279.75;10442449;28;20412;-81
2023/01/10 02:25:35;;;;;;;13.35;4.43;;;;;;;2.17;100.00;101281.53;10410975;28;20048;-81
2023/01/10 02:31:00;;;;;;;14.20;4.50;;;;;;;2.08;100.00;101281.63;10438912;28;20039;-81
2023/01/10 02:36:31;;;;;;;13.82;5.88;;;;;;;1.81;100.00;101291.31;10436090;28;20037;-81
2023/01/10 02:42:09;;;;;;;11.82;5.65;;;;;;;1.75;100.00;101298.50;10490755;28;20119;-81
2023/01/10 02:47:09;;;;;;;17.77;4.95;;;;;;;1.86;100.00;101295.22;10445603;28;20124;-80
2023/01/10 02:52:11;;;;;;;18.23;6.05;;;;;;;2.07;100.00;101307.31;10444877;28;20037;-81
2023/01/10 02:57:33;;;;;;;14.52;4.82;;;;;;;2.23;100.00;101299.25;10424379;28;20671;-81
2023/01/10 03:02:45;;;;;;;15.77;5.03;;;;;;;2.25;100.00;101303.75;10448431;28;20527;-81
2023/01/10 03:08:00;;;;;;;26.35;7.20;;;;;;;2.23;100.00;101312.16;10438880;28;20045;-80
2023/01/10 03:13:12;;;;;;;13.77;4.47;;;;;;;2.25;100.00;101318.38;10446073;28;20048;-81
2023/01/10 03:18:19;;;;;;;17.52;4.07;;;;;;;2.24;100.00;101327.78;10439090;28;20102;-81
2023/01/10 03:23:19;;;;;;;12.35;3.15;;;;;;;2.45;100.00;101336.53;10419518;28;20037;-81
2023/01/10 03:28:37;;;;;;;18.63;5.07;;;;;;;2.60;100.00;101344.69;10450744;28;20071;-81
2023/01/10 03:33:37;;;;;;;13.73;5.57;;;;;;;2.59;100.00;101350.66;10446838;28;20029;-81
2023/01/10 03:38:54;;;;;;;18.75;4.55;;;;;;;2.53;100.00;101359.56;10473918;28;20123;-80
2023/01/10 03:49:38;;;;;;;13.45;4.85;;;;;;;2.73;100.00;101367.38;10447050;28;20444;-81
2023/01/10 03:54:41;;;;;;;16.45;6.15;;;;;;;2.49;100.00;101368.69;10410992;28;20037;-81
2023/01/10 03:59:42;;;;;;;19.45;5.40;;;;;;;2.34;100.00;101378.59;10428080;28;20029;-81
2023/01/10 04:04:42;;;;;;;16.85;4.18;;;;;;;2.31;100.00;101378.31;10438365;28;20868;-80
2023/01/10 04:09:42;;;;;;;13.75;5.03;;;;;;;2.22;100.00;101388.72;10437521;28;20052;-82
2023/01/10 04:14:46;;;;;;;21.92;6.00;;;;;;;2.18;100.00;101396.97;10462449;28;20068;-81
2023/01/10 04:19:47;;;;;;;12.65;5.05;;;;;;;2.24;100.00;101404.38;10467624;28;20040;-81
2023/01/10 04:24:50;;;;;;;22.05;7.55;;;;;;;2.25;100.00;101393.28;10460027;28;20515;-81
2023/01/10 04:29:51;;;;;;;16.88;6.10;;;;;;;2.19;100.00;101404.88;10455219;28;20048;-82
2023/01/10 04:34:52;;;;;;;14.73;4.30;;;;;;;2.09;100.00;101406.47;10456916;28;20040;-81
2023/01/10 04:39:53;;;;;;;13.05;6.18;;;;;;;2.03;100.00;101409.41;10463842;28;20123;-81
2023/01/10 04:44:53;;;;;;;13.63;6.07;;;;;;;1.99;100.00;101423.72;10439270;28;20048;-81
2023/01/10 04:49:54;;;;;;;19.85;6.30;;;;;;;2.01;100.00;101408.38;10452149;28;20053;-80
2023/01/10 04:54:54;;;;;;;22.85;7.00;;;;;;;2.11;100.00;101413.59;10449590;28;20071;-79
2023/01/10 04:59:55;;;;;;;19.70;7.18;;;;;;;1.99;100.00;101415.06;10450770;28;20044;-80
2023/01/10 05:04:55;;;;;;;18.35;4.32;;;;;;;1.84;100.00;101423.25;10446693;28;20135;-80
2023/01/10 05:09:56;;;;;;;19.70;6.75;;;;;;;1.83;100.00;101436.91;10454698;28;20073;-80
2023/01/10 05:14:56;;;;;;;15.38;4.97;;;;;;;1.84;100.00;101449.06;10430032;28;20132;-79
2023/01/10 05:19:57;;;;;;;19.40;4.90;;;;;;;1.98;100.00;101437.38;10437213;28;20100;-80
2023/01/10 05:24:57;;;;;;;16.67;5.22;;;;;;;1.70;100.00;101429.69;10432448;28;20128;-81
2023/01/10 05:29:58;;;;;;;22.88;6.60;;;;;;;1.53;100.00;101445.28;10449881;28;20049;-85
2023/01/10 05:34:58;;;;;;;15.65;4.70;;;;;;;1.50;100.00;101465.63;10438023;28;20060;-82
2023/01/10 05:39:59;;;;;;;22.85;6.32;;;;;;;1.69;100.00;101469.16;10458294;28;20378;-80
2023/01/10 05:44:59;;;;;;;13.65;5.32;;;;;;;2.00;100.00;101489.19;10444910;28;20047;-77
2023/01/10 05:50:00;;;;;;;22.95;6.95;;;;;;;2.38;100.00;101485.69;10451485;28;20102;-78
2023/01/10 05:55:00;;;;;;;16.40;4.43;;;;;;;2.61;100.00;101498.13;10441053;28;20072;-78
2023/01/10 06:00:03;;;;;;;25.58;7.45;;;;;;;2.76;100.00;101488.22;10431936;28;20048;-78
2023/01/10 06:05:03;;;;;;;31.55;7.90;;;;;;;2.84;100.00;101489.81;10441831;28;20036;-79
2023/01/10 06:10:04;;;;;;;22.08;8.65;;;;;;;2.96;100.00;101494.25;10450333;28;20040;-79
2023/01/10 06:15:06;;;;;;;24.17;6.03;;;;;;;2.99;100.00;101486.75;10446809;28;20045;-79
2023/01/10 06:20:07;;;;;;;24.25;7.10;;;;;;;3.06;100.00;101517.56;10421949;28;20066;-77
2023/01/10 06:25:09;;;;;;;11.67;6.53;;;;;;;3.05;100.00;101511.50;10439475;28;20048;-80
2023/01/10 06:30:10;;;;;;;18.65;5.70;;;;;;;3.00;100.00;101510.19;10428793;28;20112;-80
2023/01/10 06:35:11;;;;;;;18.83;5.78;;;;;;;2.81;100.00;101514.50;10458477;28;20052;-78
2023/01/10 06:40:11;;;;;;;21.23;5.97;;;;;;;2.46;100.00;101521.81;10451057;28;20070;-79
2023/01/10 06:45:12;;;;;;;17.85;6.13;;;;;;;2.27;100.00;101538.97;10442907;28;20052;-79
2023/01/10 06:50:13;;;;;;;33.42;6.15;;;;;;;2.19;100.00;101538.25;10440422;28;20037;-78
2023/01/10 06:55:13;;;;;;;25.50;7.57;;;;;;;2.15;100.00;101550.00;10442750;28;20033;-78
2023/01/10 07:00:14;;;;;;;21.05;7.03;;;;;;;2.02;100.00;101558.25;10420988;28;20052;-79
2023/01/10 07:05:15;;;;;;;23.50;8.40;;;;;;;1.92;100.00;101572.75;10402057;28;20042;-81
2023/01/10 07:10:15;;;;;;;19.58;6.55;;;;;;;1.86;100.00;101575.66;10390690;28;20478;-81
2023/01/10 07:15:16;;;;;;;25.23;7.53;;;;;;;1.72;100.00;101588.19;10434895;28;20040;-81
2023/01/10 07:20:17;;;;;;;30.33;9.82;;;;;;;1.65;100.00;101584.88;10423460;28;20029;-82
2023/01/10 07:25:17;;;;;;;48.40;9.60;;;;;;;1.53;100.00;101602.66;10402538;28;20474;-80
2023/01/10 07:30:18;;;;;;;25.35;9.00;;;;;;;1.55;100.00;101621.78;10398677;28;20669;-80
2023/01/10 07:35:18;;;;;;;20.92;6.00;;;;;;;1.47;100.00;101626.22;10426609;28;20037;-79
2023/01/10 07:40:22;;;;;;;23.13;7.72;;;;;;;1.41;100.00;101623.94;10399933;28;20044;-79
2023/01/10 07:45:22;;;;;;;38.08;12.50;;;;;;;1.48;100.00;101640.03;10413763;28;20041;-80
2023/01/10 07:50:23;;;;;;;25.95;6.53;;;;;;;1.41;100.00;101646.28;10399265;28;20046;-80
2023/01/10 07:55:24;;;;;;;21.25;7.93;;;;;;;1.56;100.00;101659.72;10364709;28;20042;-80
2023/01/10 08:00:24;;;;;;;18.98;8.40;;;;;;;1.56;100.00;101659.72;10386340;28;20128;-81
2023/01/10 08:05:25;;;;;;;25.27;7.82;;;;;;;1.67;100.00;101669.41;10397605;28;20045;-81
2023/01/10 08:10:26;;;;;;;31.65;10.18;;;;;;;1.81;100.00;101667.25;10424454;28;20081;-79
2023/01/10 08:15:26;;;;;;;28.75;8.60;;;;;;;1.96;100.00;101653.22;10416944;28;20038;-82
2023/01/10 08:20:28;;;;;;;20.42;6.30;;;;;;;1.93;100.00;101644.28;10420543;28;20041;-80
2023/01/10 08:25:28;;;;;;;18.40;5.80;;;;;;;2.01;100.00;101645.94;10403403;28;20041;-79
2023/01/10 08:30:29;;;;;;;22.38;6.25;;;;;;;2.23;100.00;101661.75;10403583;28;20026;-81
2023/01/10 08:35:29;;;;;;;28.67;7.70;;;;;;;2.35;100.00;101642.25;10403973;28;20118;-82
2023/01/10 08:40:30;;;;;;;18.95;6.55;;;;;;;2.46;100.00;101635.50;10386792;28;20034;-81
2023/01/10 08:45:31;;;;;;;25.95;8.32;;;;;;;2.63;100.00;101649.97;10442303;28;20388;-81
2023/01/10 08:50:31;;;;;;;20.92;7.00;;;;;;;2.81;100.00;101641.19;10446041;28;20503;-80
2023/01/10 08:55:34;;;;;;;24.88;7.95;;;;;;;3.07;100.00;101638.38;10421231;28;20065;-80
2023/01/10 09:00:34;;;;;;;22.40;6.22;;;;;;;3.36;100.00;101640.06;10423250;28;20102;-81
2023/01/10 09:05:35;;;;;;;22.25;8.25;;;;;;;3.53;100.00;101629.53;10405618;28;20057;-79
2023/01/10 09:10:35;;;;;;;30.60;9.13;;;;;;;3.65;100.00;101628.78;10404769;28;20044;-80
2023/01/10 09:15:37;;;;;;;26.48;6.60;;;;;;;3.79;100.00;101623.13;10407409;28;20059;-80
2023/01/10 09:20:38;;;;;;;18.95;6.72;;;;;;;3.96;100.00;101619.44;10443512;28;20037;-82
2023/01/10 09:25:39;;;;;;;19.63;6.90;;;;;;;4.11;100.00;101621.53;10440638;28;20045;-81
2023/01/10 09:30:39;;;;;;;25.15;7.18;;;;;;;4.35;100.00;101624.41;10414867;28;20132;-81
2023/01/10 09:35:40;;;;;;;32.28;11.57;;;;;;;4.63;100.00;101622.44;10378559;28;20038;-81
2023/01/10 09:41:09;;;;;;;27.15;9.50;;;;;;;4.87;100.00;101626.97;10369662;28;20116;-81
2023/01/10 09:46:34;;;;;;;32.13;15.35;;;;;;;5.02;100.00;101630.81;10413388;28;21619;-84
2023/01/10 09:51:41;;;;;;;27.60;7.90;;;;;;;4.92;100.00;101629.16;10413212;28;20053;-82
2023/01/10 09:56:42;;;;;;;16.08;4.75;;;;;;;4.86;100.00;101628.63;10419300;28;20054;-82
2023/01/10 10:01:42;;;;;;;20.23;7.88;;;;;;;4.87;100.00;101624.38;10379590;28;20045;-81
2023/01/10 10:06:43;;;;;;;21.75;6.10;;;;;;;4.99;100.00;101634.06;10399437;28;20366;-81
2023/01/10 10:11:49;;;;;;;22.45;5.13;;;;;;;5.27;100.00;101618.16;10380318;28;20057;-81
2023/01/10 10:17:12;;;;;;;24.48;7.22;;;;;;;5.58;100.00;101604.16;10440500;28;20048;-81
2023/01/10 10:22:21;;;;;;;14.50;5.65;;;;;;;5.76;100.00;101612.47;10444782;28;20052;-78
2023/01/10 10:27:23;;;;;;;18.23;5.13;;;;;;;5.84;100.00;101602.69;10442739;28;20045;-81
2023/01/10 10:32:30;;;;;;;12.88;3.92;;;;;;;6.00;100.00;101582.38;10442011;28;20041;-83
2023/01/10 10:37:35;;;;;;;16.27;5.93;;;;;;;5.98;100.00;101577.78;10471072;28;20059;-83
2023/01/10 10:42:38;;;;;;;15.27;7.22;;;;;;;5.92;100.00;101572.09;10482484;28;20029;-83
2023/01/10 10:47:39;;;;;;;19.50;7.82;;;;;;;5.81;100.00;101566.97;10482991;28;20044;-82
2023/01/10 10:52:40;;;;;;;28.98;6.10;;;;;;;5.79;100.00;101571.16;10466667;28;20189;-82
2023/01/10 10:57:40;;;;;;;16.95;4.65;;;;;;;5.75;100.00;101571.69;10464926;28;20098;-82
2023/01/10 11:02:52;;;;;;;21.50;7.15;;;;;;;5.83;100.00;101555.00;10481270;28;20067;-82
2023/01/10 11:07:52;;;;;;;17.27;6.30;;;;;;;5.91;100.00;101544.31;10450547;28;20051;-83
2023/01/10 11:12:54;;;;;;;26.23;7.05;;;;;;;5.91;100.00;101539.13;10465925;28;20087;-84
2023/01/10 11:18:06;;;;;;;20.30;8.40;;;;;;;5.93;100.00;101541.06;10481680;28;20051;-82
2023/01/10 11:23:06;;;;;;;;;;;;;;;6.16;100.00;101529.84;10480835;28;20033;-83
2023/01/10 11:28:11;;;;;;;15.57;4.70;;;;;;;6.27;100.00;101524.56;10485001;28;20264;-80
2023/01/10 11:33:19;;;;;;;12.18;5.55;;;;;;;6.25;100.00;101524.47;10472887;28;20537;-81
2023/01/10 11:38:20;;;;;;;23.05;5.43;;;;;;;6.35;100.00;101522.56;10488688;28;20113;-81
2023/01/10 11:43:33;;;;;;;16.15;5.40;;;;;;;6.43;100.00;101519.72;10463973;28;20064;-80
2023/01/10 11:48:43;;;;;;;;;;;;;;;6.38;100.00;101515.00;10420025;28;20044;-80
2023/01/10 11:53:44;;;;;;;16.75;5.70;;;;;;;6.29;100.00;101512.59;10474957;28;19960;-80
2023/01/10 11:58:45;;;;;;;14.40;5.38;;;;;;;6.26;100.00;101507.16;10409347;28;20044;-80
2023/01/10 12:03:45;;;;;;;18.83;4.55;;;;;;;6.31;100.00;101498.94;10431944;28;20073;-81
2023/01/10 12:08:46;;;;;;;17.90;5.32;;;;;;;6.22;100.00;101498.25;10408712;28;20071;-82
2023/01/10 12:13:51;;;;;;;16.48;5.03;;;;;;;6.26;100.00;101488.97;10447569;28;20075;-82
2023/01/10 12:18:53;;;;;;;16.05;6.45;;;;;;;6.24;100.00;101487.94;10484071;28;20044;-82
2023/01/10 12:23:54;;;;;;;;;;;;;;;6.26;100.00;101476.88;10449607;28;20045;-81
2023/01/10 12:28:56;;;;;;;16.17;4.95;;;;;;;6.29;100.00;101479.72;10421174;28;20388;-81
2023/01/10 12:34:05;;;;;;;26.58;6.85;;;;;;;6.32;100.00;101476.41;10448389;28;20036;-82
2023/01/10 12:39:22;;;;;;;20.88;4.47;;;;;;;6.28;100.00;101464.91;10469939;28;20033;-80
2023/01/10 12:44:44;;;;;;;16.48;6.90;;;;;;;6.32;100.00;101456.53;10463033;28;20037;-80
2023/01/10 12:50:20;;;;;;;16.77;4.72;;;;;;;6.31;100.00;101451.22;10444595;28;20041;-80
2023/01/10 12:55:22;;;;;;;18.85;4.28;;;;;;;6.16;100.00;101446.69;10458624;28;20124;-81
2023/01/10 13:00:27;;;;;;;23.02;5.75;;;;;;;6.13;100.00;101423.06;10428962;28;20044;-80
2023/01/10 13:05:28;;;;;;;12.60;4.20;;;;;;;6.21;100.00;101415.84;10460735;28;20064;-81
2023/01/10 13:10:29;;;;;;;20.80;7.93;;;;;;;6.30;100.00;101400.00;10478311;28;20037;-81
2023/01/10 13:15:37;;;;;;;20.58;4.25;;;;;;;6.31;100.00;101402.72;10452516;28;20468;-81
2023/01/10 13:20:39;;;;;;;20.50;4.55;;;;;;;6.35;100.00;101393.44;10469372;28;20580;-82
2023/01/10 13:25:39;;;;;;;13.73;6.05;;;;;;;6.35;100.00;101390.84;10484868;28;20036;-83
2023/01/10 13:30:40;;;;;;;12.10;3.75;;;;;;;6.35;100.00;101380.44;10468243;28;20543;-83
2023/01/10 13:35:41;;;;;;;19.15;6.88;;;;;;;6.34;100.00;101368.25;10417140;28;20037;-82
2023/01/10 13:40:56;;;;;;;22.07;8.07;;;;;;;6.39;100.00;101345.19;10402121;28;20474;-83
2023/01/10 13:46:15;;;;;;;15.90;6.00;;;;;;;6.39;100.00;101351.28;10385515;28;20508;-83
2023/01/10 13:51:17;;;;;;;19.90;6.35;;;;;;;6.44;100.00;101336.91;10402288;28;20470;-82
2023/01/10 13:56:44;;;;;;;;;;;;;;;6.45;100.00;101330.03;10402886;28;20041;-83
2023/01/10 14:07:34;;;;;;;10.32;4.68;;;;;;;6.52;100.00;101319.28;10423171;28;20041;-82
2023/01/10 14:12:44;;;;;;;16.33;3.63;;;;;;;6.58;100.00;101319.72;10449034;28;20034;-83
2023/01/10 14:17:45;;;;;;;33.17;5.78;;;;;;;6.58;100.00;101330.13;10466452;28;20048;-83
2023/01/10 14:23:03;;;;;;;17.95;4.13;;;;;;;6.53;100.00;101323.69;10457270;28;20397;-82
2023/01/10 14:28:04;;;;;;;10.85;4.63;;;;;;;6.23;100.00;101319.75;10442214;28;20033;-81
2023/01/10 14:33:18;;;;;;;14.60;5.30;;;;;;;5.76;100.00;101334.53;10450183;28;20051;-80
2023/01/10 14:38:24;;;;;;;26.20;6.57;;;;;;;5.40;100.00;101330.97;10441978;28;20047;-84
2023/01/10 14:43:27;;;;;;;27.13;9.02;;;;;;;5.28;100.00;101333.56;10451539;28;20098;-86
2023/01/10 14:48:38;;;;;;;19.30;8.48;;;;;;;5.08;100.00;101326.81;10449069;28;20041;-85
2023/01/10 14:53:40;;;;;;;14.95;5.05;;;;;;;4.94;100.00;101311.09;10472852;28;20116;-85
2023/01/10 14:58:40;;;;;;;31.70;11.10;;;;;;;4.77;100.00;101317.56;10421776;28;20037;-87
2023/01/10 15:03:44;;;;;;;10.55;4.80;;;;;;;4.73;100.00;101304.25;10400250;28;20065;-89
2023/01/10 15:08:45;;;;;;;21.08;6.70;;;;;;;4.64;100.00;101275.91;10468927;28;20044;-88
2023/01/10 15:13:54;;;;;;;18.30;5.28;;;;;;;4.60;100.00;101264.38;10481289;28;20121;-85
2023/01/10 15:18:55;;;;;;;15.07;4.22;;;;;;;4.52;100.00;101255.09;10404728;28;20124;-90
2023/01/10 15:23:56;;;;;;;15.20;5.53;;;;;;;4.45;100.00;101229.47;10395480;28;20481;-91
2023/01/10 15:29:15;;;;;;;31.35;4.75;;;;;;;4.40;100.00;101240.41;10448213;28;20037;-86
2023/01/10 15:34:19;;;;;;;18.35;6.13;;;;;;;4.30;100.00;101236.97;10481512;28;20091;-83
2023/01/10 15:39:41;;;;;;;20.15;5.00;;;;;;;4.30;100.00;101224.03;10461187;28;20044;-83
2023/01/10 15:44:43;;;;;;;13.88;4.47;;;;;;;4.25;100.00;101200.31;10479831;28;20428;-85
2023/01/10 15:49:52;;;;;;;13.32;4.70;;;;;;;4.29;100.00;101204.06;10446358;28;20036;-83
2023/01/10 15:54:55;;;;;;;20.48;4.28;;;;;;;4.23;100.00;101208.00;10439710;28;20512;-83
2023/01/10 15:59:57;;;;;;;9.25;4.07;;;;;;;4.24;100.00;101207.22;10446274;28;20036;-83
2023/01/10 16:05:06;;;;;;;11.52;4.65;;;;;;;4.21;100.00;101203.47;10479456;28;20066;-85
2023/01/10 16:10:14;;;;;;;20.80;6.10;;;;;;;4.20;100.00;101180.91;10428288;28;20037;-85
2023/01/10 16:15:17;;;;;;;11.82;4.78;;;;;;;4.17;100.00;101179.00;10404887;28;20125;-84
2023/01/10 16:20:27;;;;;;;9.00;4.88;;;;;;;4.14;100.00;101175.25;10446660;28;20083;-83
2023/01/10 16:25:34;;;;;;;10.02;3.08;;;;;;;4.14;100.00;101157.13;10405356;28;20067;-81
2023/01/10 16:30:34;;;;;;;7.63;3.45;;;;;;;4.11;100.00;101158.69;10437633;28;20036;-89
2023/01/10 16:35:35;;;;;;;11.90;3.15;;;;;;;4.14;100.00;101142.50;10469883;28;20058;-88
2023/01/10 16:40:39;;;;;;;6.05;2.90;;;;;;;4.07;100.00;101148.00;10487795;28;20124;-89
2023/01/10 16:45:40;;;;;;;8.25;2.97;;;;;;;4.11;100.00;101124.13;10383604;28;20055;-85
2023/01/10 16:50:41;;;;;;;12.27;3.80;;;;;;;4.10;100.00;101148.22;10446475;28;20070;-83
2023/01/10 16:55:44;;;;;;;6.28;3.28;;;;;;;4.11;100.00;101126.72;10458484;28;20492;-86
2023/01/10 17:00:46;;;;;;;8.23;1.90;;;;;;;4.16;100.00;101138.34;10461174;28;20047;-81
2023/01/10 17:05:47;;;;;;;4.53;2.03;;;;;;;4.09;100.00;101108.44;10448949;28;20041;-85
2023/01/10 17:10:51;;;;;;;8.90;1.67;;;;;;;4.11;100.00;101117.25;10444960;28;20057;-83
2023/01/10 17:15:51;;;;;;;6.00;1.85;;;;;;;4.17;100.00;101110.72;10410998;28;20152;-83
2023/01/10 17:20:52;;;;;;;3.05;1.60;;;;;;;4.17;100.00;101108.13;10406258;28;20497;-83
2023/01/10 17:25:59;;;;;;;8.20;2.10;;;;;;;4.16;100.00;101098.56;10414810;28;20541;-84
2023/01/10 17:31:01;;;;;;;4.35;1.80;;;;;;;4.18;100.00;101094.41;10439064;28;20056;-82
2023/01/10 17:36:01;;;;;;;6.87;3.93;;;;;;;4.20;100.00;101092.84;10465499;28;20044;-79
2023/01/10 17:41:02;;;;;;;7.10;2.33;;;;;;;4.28;100.00;101081.38;10475668;28;20481;-80
2023/01/10 17:46:04;;;;;;;4.95;2.45;;;;;;;4.27;100.00;101071.78;10462154;28;20083;-80
2023/01/10 17:51:05;;;;;;;;;;;;;;;4.29;100.00;101064.16;10463734;28;20119;-79
2023/01/10 17:56:06;;;;;;;4.43;1.63;;;;;;;4.33;100.00;101056.72;10458862;28;19927;-80
2023/01/10 18:01:12;;;;;;;6.25;1.67;;;;;;;4.34;100.00;101055.91;10463708;28;20469;-78
2023/01/10 18:06:13;;;;;;;16.02;2.60;;;;;;;4.44;100.00;101030.69;10466286;28;20036;-78
2023/01/10 18:11:13;;;;;;;5.15;1.58;;;;;;;4.53;100.00;101040.06;10456860;28;20509;-82
2023/01/10 18:16:14;;;;;;;3.17;1.60;;;;;;;4.65;100.00;101045.25;10426231;28;20039;-80
2023/01/10 18:21:16;;;;;;;3.08;1.63;;;;;;;4.78;100.00;101026.34;10442715;28;20477;-83
2023/01/10 18:26:16;;;;;;;2.75;1.25;;;;;;;4.84;100.00;101021.59;10423082;28;20127;-81
2023/01/10 18:31:20;;;;;;;3.38;1.98;;;;;;;4.96;100.00;101000.81;10442352;28;20444;-78
2023/01/10 18:36:24;;;;;;;9.00;2.00;;;;;;;5.05;100.00;101000.59;10447199;28;20067;-81
2023/01/10 18:41:34;;;;;;;1.77;0.65;;;;;;;5.06;100.00;100993.72;10437968;28;20412;-83
2023/01/10 18:46:38;;;;;;;1.58;1.00;;;;;;;5.07;100.00;100977.34;10440163;28;20064;-81
2023/01/10 18:51:45;;;;;;;2.63;1.00;;;;;;;5.17;100.00;100979.81;10441304;28;20041;-81
2023/01/10 18:56:59;;;;;;;1.42;0.70;;;;;;;5.24;100.00;100975.97;10441699;28;20048;-78
2023/01/10 19:02:00;;;;;;;2.03;0.60;;;;;;;5.28;100.00;100968.50;10468336;28;20056;-78
2023/01/10 19:07:27;;;;;;;3.03;1.50;;;;;;;5.35;100.00;100968.94;10410614;28;20056;-78
2023/01/10 19:12:33;;;;;;;2.22;0.75;;;;;;;5.46;100.00;100948.94;10436423;28;20048;-78
2023/01/10 19:23:29;;;;;;;4.53;1.55;;;;;;;5.55;100.00;100950.44;10442003;28;20553;-78
2023/01/10 19:28:39;;;;;;;1.23;0.40;;;;;;;5.60;100.00;100945.59;10461739;28;20044;-79
2023/01/10 19:33:41;;;;;;;2.58;1.05;;;;;;;5.65;100.00;100933.84;10465201;28;20075;-78
2023/01/10 19:38:49;;;;;;;1.77;1.17;;;;;;;5.72;100.00;100927.34;10418444;28;20057;-79
2023/01/10 19:44:03;;;;;;;1.55;0.57;;;;;;;5.74;100.00;100928.34;10385903;28;20042;-79
2023/01/10 19:49:16;;;;;;;1.30;0.50;;;;;;;5.83;100.00;100920.28;10436357;28;20497;-79
2023/01/10 19:54:17;;;;;;;2.40;0.50;;;;;;;5.94;100.00;100918.41;10410702;28;20036;-76
2023/01/10 19:59:18;;;;;;;1.27;0.47;;;;;;;5.98;100.00;100907.41;10404486;28;20044;-80
2023/01/10 20:04:25;;;;;;;0.68;0.40;;;;;;;5.98;100.00;100897.94;10389166;28;20044;-78
2023/01/10 20:09:29;;;;;;;1.42;0.70;;;;;;;6.02;100.00;100893.88;10405528;28;20084;-78
2023/01/10 20:14:38;;;;;;;1.52;0.50;;;;;;;6.15;100.00;100887.81;10451108;28;20048;-79
2023/01/10 20:19:47;;;;;;;2.42;1.55;;;;;;;6.18;100.00;100885.41;10447776;28;20045;-79
2023/01/10 20:24:59;;;;;;;0.43;0.40;;;;;;;6.30;100.00;100859.28;10443543;28;20041;-79
2023/01/10 20:30:12;;;;;;;1.50;0.70;;;;;;;6.36;100.00;100857.09;10451495;28;20489;-79
2023/01/10 20:35:16;;;;;;;0.73;0.60;;;;;;;6.35;100.00;100839.69;10405662;28;20064;-78
2023/01/10 20:40:21;;;;;;;0.63;0.40;;;;;;;6.46;100.00;100830.88;10423381;28;20044;-80
2023/01/10 20:45:26;;;;;;;1.67;0.50;;;;;;;6.53;100.00;100834.78;10426146;28;20048;-78
2023/01/10 20:50:32;;;;;;;0.75;0.60;;;;;;;6.60;100.00;100825.66;10465770;28;20045;-79
2023/01/10 20:55:47;;;;;;;1.83;1.00;;;;;;;6.60;100.00;100823.97;10441351;28;20043;-80
2023/01/10 21:01:00;;;;;;;1.20;0.80;;;;;;;6.68;100.00;100829.63;10441595;28;20183;-78
2023/01/10 21:06:09;;;;;;;2.95;0.90;;;;;;;6.77;100.00;100826.72;10443927;28;20533;-78
2023/01/10 21:11:11;;;;;;;2.90;1.13;;;;;;;6.65;100.00;100828.56;10391458;28;20076;-78
2023/01/10 21:16:13;;;;;;;2.63;1.83;;;;;;;6.47;100.00;100834.41;10394264;28;20047;-78
2023/01/10 21:21:18;;;;;;;4.35;1.27;;;;;;;6.49;100.00;100826.69;10477975;28;20515;-78
2023/01/10 21:26:27;;;;;;;1.58;1.02;;;;;;;6.53;100.00;100824.38;10446059;28;20123;-78
2023/01/10 21:31:36;;;;;;;2.88;1.15;;;;;;;6.54;100.00;100823.59;10461584;28;20742;-78
2023/01/10 21:36:37;;;;;;;0.95;0.57;;;;;;;6.57;100.00;100800.38;10465992;28;20078;-80
2023/01/10 21:46:59;;;;;;;1.90;0.82;;;;;;;6.53;100.00;100808.78;10445431;28;20043;-78
2023/01/10 21:52:00;;;;;;;1.33;0.73;;;;;;;6.58;100.00;100811.66;10457848;28;20500;-79
2023/01/10 21:57:12;;;;;;;2.58;0.85;;;;;;;6.64;100.00;100801.63;10450832;28;20055;-78
2023/01/10 22:02:14;;;;;;;1.52;1.00;;;;;;;6.73;100.00;100785.72;10440771;28;20037;-79
2023/01/10 22:07:21;;;;;;;1.58;0.77;;;;;;;6.80;100.00;100782.69;10432441;28;20046;-80
2023/01/10 22:12:25;;;;;;;2.10;0.30;;;;;;;6.98;100.00;100784.63;10484406;28;20094;-80
2023/01/10 22:17:25;;;;;;;3.25;0.70;;;;;;;7.03;100.00;100778.88;10480689;28;20139;-80
2023/01/10 22:22:29;;;;;;;0.80;0.40;;;;;;;7.15;100.00;100759.59;10443934;28;20481;-79
2023/01/10 22:27:35;;;;;;;1.63;0.55;;;;;;;7.33;100.00;100768.50;10443447;28;20123;-79
2023/01/10 22:32:36;;;;;;;0.95;0.52;;;;;;;7.46;100.00;100745.78;10451337;28;20037;-79
2023/01/10 22:37:42;;;;;;;0.77;0.40;;;;;;;7.52;100.00;100746.16;10430728;28;20041;-79
2023/01/10 22:42:45;;;;;;;3.08;1.08;;;;;;;7.55;100.00;100745.44;10416791;28;20037;-79
2023/01/10 22:47:52;;;;;;;2.00;0.52;;;;;;;7.53;100.00;100747.94;10439731;28;21077;-79
2023/01/10 22:52:53;;;;;;;1.38;0.50;;;;;;;7.54;100.00;100739.31;10393699;28;20131;-79
2023/01/10 22:58:05;;;;;;;2.83;0.70;;;;;;;7.57;100.00;100728.19;10436637;28;20444;-79
2023/01/10 23:03:18;;;;;;;1.80;0.90;;;;;;;7.64;100.00;100710.38;10409614;28;20044;-78
2023/01/10 23:08:33;;;;;;;2.85;0.85;;;;;;;7.75;100.00;100711.00;10448716;28;20041;-79
2023/01/10 23:13:47;;;;;;;2.00;0.60;;;;;;;7.81;100.00;100718.25;10476612;28;20512;-79
2023/01/10 23:18:50;;;;;;;2.47;1.95;;;;;;;7.85;100.00;100702.00;10440466;28;20048;-80
2023/01/10 23:23:59;;;;;;;1.17;0.55;;;;;;;7.92;100.00;100698.91;10432576;28;20086;-79
2023/01/10 23:29:02;;;;;;;2.58;0.73;;;;;;;7.94;100.00;100688.59;10426039;28;20036;-80
2023/01/10 23:34:03;;;;;;;2.47;1.35;;;;;;;7.99;100.00;100681.91;10446937;28;20092;-80
2023/01/10 23:39:09;;;;;;;3.60;2.28;;;;;;;8.05;100.00;100677.03;10429101;28;20056;-79